createdAt,value
2019-03-17T00:00:48.316Z,99807.61
2019-03-17T00:03:17.983Z,99800.94
2019-03-17T00:05:47.734Z,99790.11
2019-03-17T00:08:17.395Z,99787.13
2019-03-17T00:10:47.151Z,99781.63
2019-03-17T00:13:17.936Z,99782.02
2019-03-17T00:15:47.782Z,99772.83
2019-03-17T00:18:17.422Z,99773.72
2019-03-17T00:20:47.123Z,99772.30
2019-03-17T00:23:16.791Z,99763.12
2019-03-17T00:25:46.662Z,99768.30
2019-03-17T00:28:16.365Z,99750.41
2019-03-17T00:30:46.021Z,99756.66
2019-03-17T00:33:15.764Z,99765.63
2019-03-17T00:35:45.475Z,99755.34
2019-03-17T00:38:15.256Z,99751.75
2019-03-17T00:40:44.992Z,99761.31
2019-03-17T00:43:14.713Z,99753.72
2019-03-17T00:45:44.504Z,99747.05
2019-03-17T00:48:14.341Z,99748.83
2019-03-17T00:50:43.984Z,99747.80
2019-03-17T00:53:13.900Z,99741.30
2019-03-17T00:55:43.571Z,99734.16
2019-03-17T00:58:13.258Z,99739.49
2019-03-17T01:00:43.209Z,99742.25
2019-03-17T01:03:12.866Z,99723.58
2019-03-17T01:05:42.551Z,99725.93
2019-03-17T01:08:12.197Z,99718.47
2019-03-17T01:10:42.029Z,99712.43
2019-03-17T01:13:11.801Z,99710.41
2019-03-17T01:15:41.478Z,99686.78
2019-03-17T01:18:11.207Z,99678.89
2019-03-17T01:20:40.912Z,99682.80
2019-03-17T01:23:10.591Z,99682.20
2019-03-17T01:25:40.420Z,99683.22
2019-03-17T01:28:10.160Z,99688.87
2019-03-17T01:30:39.970Z,99685.47
2019-03-17T01:33:09.709Z,99687.44
2019-03-17T01:35:39.522Z,99677.25
2019-03-17T01:38:09.221Z,99679.34
2019-03-17T01:40:39.280Z,99671.13
2019-03-17T01:43:08.917Z,99675.54
2019-03-17T01:45:38.559Z,99673.45
2019-03-17T01:48:08.411Z,99673.70
2019-03-17T01:50:38.233Z,99682.39
2019-03-17T01:53:07.923Z,99677.12
2019-03-17T01:55:37.715Z,99670.78
2019-03-17T01:58:07.388Z,99672.05
2019-03-17T02:00:37.378Z,99672.87
2019-03-17T02:03:07.063Z,99672.93
2019-03-17T02:05:38.102Z,99666.81
2019-03-17T02:08:07.813Z,99660.55
2019-03-17T02:10:37.577Z,99662.20
2019-03-17T02:13:07.298Z,99659.70
2019-03-17T02:15:37.007Z,99636.72
2019-03-17T02:18:06.826Z,99637.48
2019-03-17T02:20:36.560Z,99616.63
2019-03-17T02:23:06.337Z,99611.63
2019-03-17T02:25:36.070Z,99611.13
2019-03-17T02:28:05.822Z,99593.17
2019-03-17T02:30:35.870Z,99595.22
2019-03-17T02:33:05.594Z,99592.80
2019-03-17T02:35:39.329Z,99586.60
2019-03-17T02:38:06.872Z,99589.50
2019-03-17T02:40:36.550Z,99578.84
2019-03-17T02:43:06.200Z,99589.05
2019-03-17T02:45:35.866Z,99575.56
2019-03-17T02:48:05.524Z,99576.09
2019-03-17T02:50:35.189Z,99576.48
2019-03-17T02:53:04.939Z,99583.62
2019-03-17T02:55:34.637Z,99578.22
2019-03-17T02:58:04.358Z,99574.38
2019-03-17T03:00:34.102Z,99565.52
2019-03-17T03:03:03.858Z,99555.15
2019-03-17T03:05:33.658Z,99550.34
2019-03-17T03:08:03.405Z,99540.39
2019-03-17T03:10:33.234Z,99547.45
2019-03-17T03:13:02.972Z,99545.06
2019-03-17T03:15:32.657Z,99546.22
2019-03-17T03:18:02.356Z,99559.63
2019-03-17T03:20:32.009Z,99556.58
2019-03-17T03:23:01.722Z,99556.27
2019-03-17T03:25:31.439Z,99553.13
2019-03-17T03:28:01.137Z,99561.77
2019-03-17T03:30:30.857Z,99555.27
2019-03-17T03:33:00.558Z,99562.06
2019-03-17T03:35:30.273Z,99557.34
2019-03-17T03:38:00.043Z,99546.41
2019-03-17T03:40:29.707Z,99546.10
2019-03-17T03:42:59.550Z,99566.41
2019-03-17T03:45:29.223Z,99564.77
2019-03-17T03:47:58.879Z,99557.40
2019-03-17T03:50:28.650Z,99561.30
2019-03-17T03:52:58.358Z,99560.06
2019-03-17T03:55:28.154Z,99555.44
2019-03-17T03:57:57.936Z,99550.34
2019-03-17T04:00:27.812Z,99550.33
2019-03-17T04:02:57.536Z,99559.44
2019-03-17T04:05:27.233Z,99549.31
2019-03-17T04:07:56.904Z,99547.34
2019-03-17T04:10:26.609Z,99539.45
2019-03-17T04:12:56.269Z,99540.62
2019-03-17T04:15:26.071Z,99535.63
2019-03-17T04:17:55.837Z,99532.33
2019-03-17T04:20:25.592Z,99537.34
2019-03-17T04:22:55.423Z,99538.61
2019-03-17T04:25:25.191Z,99540.55
2019-03-17T04:27:54.987Z,99532.02
2019-03-17T04:30:25.916Z,99532.17
2019-03-17T04:32:55.684Z,99527.95
2019-03-17T04:35:25.343Z,99530.68
2019-03-17T04:37:55.254Z,99537.66
2019-03-17T04:40:24.905Z,99544.09
2019-03-17T04:42:54.618Z,99536.11
2019-03-17T04:45:24.508Z,99544.00
2019-03-17T04:47:54.203Z,99551.66
2019-03-17T04:50:23.920Z,99531.94
2019-03-17T04:52:59.020Z,99544.70
2019-03-17T04:55:28.653Z,99550.79
2019-03-17T04:57:58.335Z,99547.80
2019-03-17T05:00:28.186Z,99562.38
2019-03-17T05:02:57.912Z,99550.92
2019-03-17T05:05:28.988Z,99550.61
2019-03-17T05:07:58.688Z,99550.70
2019-03-17T05:10:28.337Z,99549.43
2019-03-17T05:12:58.032Z,99546.55
2019-03-17T05:15:27.837Z,99547.31
2019-03-17T05:17:57.601Z,99542.84
2019-03-17T05:20:27.325Z,99529.71
2019-03-17T05:22:57.024Z,99534.46
2019-03-17T05:25:26.680Z,99534.86
2019-03-17T05:27:56.363Z,99541.83
2019-03-17T05:30:26.033Z,99544.51
2019-03-17T05:32:55.785Z,99538.75
2019-03-17T05:35:25.455Z,99539.39
2019-03-17T05:37:55.211Z,99550.20
2019-03-17T05:40:25.074Z,99552.13
2019-03-17T05:42:54.709Z,99545.85
2019-03-17T05:45:24.417Z,99549.22
2019-03-17T05:47:54.059Z,99550.72
2019-03-17T05:50:23.813Z,99560.73
2019-03-17T05:52:53.580Z,99564.39
2019-03-17T05:55:23.374Z,99572.70
2019-03-17T05:57:53.037Z,99556.49
2019-03-17T06:00:22.799Z,99575.25
2019-03-17T06:02:52.445Z,99576.33
2019-03-17T06:05:22.142Z,99578.81
2019-03-17T06:07:51.800Z,99585.06
2019-03-17T06:10:21.510Z,99588.73
2019-03-17T06:12:51.258Z,99590.48
2019-03-17T06:15:20.929Z,99594.23
2019-03-17T06:17:50.645Z,99592.78
2019-03-17T06:20:20.287Z,99592.39
2019-03-17T06:22:50.049Z,99596.95
2019-03-17T06:25:19.734Z,99596.64
2019-03-17T06:27:49.465Z,99594.95
2019-03-17T06:30:19.320Z,99597.48
2019-03-17T06:32:49.030Z,99598.69
2019-03-17T06:35:18.702Z,99595.95
2019-03-17T06:37:48.403Z,99589.45
2019-03-17T06:40:18.056Z,99594.23
2019-03-17T06:42:47.810Z,99591.98
2019-03-17T06:45:17.519Z,99605.05
2019-03-17T06:47:47.280Z,99619.31
2019-03-17T06:50:17.204Z,99619.67
2019-03-17T06:52:46.967Z,99627.83
2019-03-17T06:55:18.690Z,99636.42
2019-03-17T06:57:48.395Z,99631.69
2019-03-17T07:00:18.326Z,99638.83
2019-03-17T07:02:48.036Z,99650.30
2019-03-17T07:05:17.939Z,99660.40
2019-03-17T07:07:47.584Z,99664.84
2019-03-17T07:10:17.441Z,99669.03
2019-03-17T07:12:47.161Z,99670.91
2019-03-17T07:15:17.094Z,99687.52
2019-03-17T07:17:46.745Z,99685.88
2019-03-17T07:20:16.563Z,99701.91
2019-03-17T07:22:46.282Z,99729.77
2019-03-17T07:25:16.058Z,99741.76
2019-03-17T07:27:45.750Z,99753.88
2019-03-17T07:30:17.590Z,99742.60
2019-03-17T07:32:47.330Z,99748.73
2019-03-17T07:35:17.067Z,99754.31
2019-03-17T07:37:56.284Z,99761.80
2019-03-17T07:40:18.251Z,99768.94
2019-03-17T07:42:47.914Z,99778.42
2019-03-17T07:45:17.615Z,99775.33
2019-03-17T07:47:47.343Z,99776.80
2019-03-17T07:50:17.202Z,99782.20
2019-03-17T07:52:46.922Z,99789.42
2019-03-17T07:55:16.592Z,99792.69
2019-03-17T07:57:46.283Z,99793.13
2019-03-17T08:00:16.375Z,99786.80
2019-03-17T08:02:46.034Z,99788.11
2019-03-17T08:05:15.851Z,99783.38
2019-03-17T08:07:45.759Z,99786.94
2019-03-17T08:10:17.080Z,99793.47
2019-03-17T08:12:46.843Z,99797.95
2019-03-17T08:15:16.739Z,99798.95
2019-03-17T08:17:46.374Z,99820.55
2019-03-17T08:20:16.290Z,99820.62
2019-03-17T08:22:45.957Z,99827.28
2019-03-17T08:25:15.715Z,99825.09
2019-03-17T08:27:45.351Z,99823.00
2019-03-17T08:30:17.223Z,99822.64
2019-03-17T08:32:46.875Z,99822.55
2019-03-17T08:35:16.679Z,99826.44
2019-03-17T08:37:46.439Z,99829.72
2019-03-17T08:40:20.127Z,99838.41
2019-03-17T08:42:50.081Z,99843.88
2019-03-17T08:45:19.827Z,99846.97
2019-03-17T08:47:57.909Z,99841.93
2019-03-17T08:50:21.124Z,99851.36
2019-03-17T08:52:50.783Z,99865.38
2019-03-17T08:55:20.605Z,99866.28
2019-03-17T08:57:50.288Z,99871.37
2019-03-17T09:00:21.367Z,99868.64
2019-03-17T09:02:51.028Z,99864.95
2019-03-17T09:05:20.843Z,99872.45
2019-03-17T09:07:50.558Z,99870.95
2019-03-17T09:10:20.268Z,99879.66
2019-03-17T09:12:49.895Z,99878.51
2019-03-17T09:15:19.670Z,99883.41
2019-03-17T09:17:49.440Z,99886.69
2019-03-17T09:20:19.355Z,99892.23
2019-03-17T09:22:49.045Z,99889.95
2019-03-17T09:25:18.717Z,99888.13
2019-03-17T09:27:48.454Z,99885.47
2019-03-17T09:30:19.230Z,99888.92
2019-03-17T09:32:48.907Z,99884.80
2019-03-17T09:35:18.640Z,99887.77
2019-03-17T09:37:48.455Z,99887.59
2019-03-17T09:40:19.301Z,99876.70
2019-03-17T09:42:49.069Z,99880.29
2019-03-17T09:45:18.873Z,99875.77
2019-03-17T09:47:48.529Z,99893.19
2019-03-17T09:50:22.817Z,99879.97
2019-03-17T09:52:52.547Z,99894.82
2019-03-17T09:55:22.201Z,99893.26
2019-03-17T09:57:51.870Z,99892.27
2019-03-17T10:00:23.340Z,99911.02
2019-03-17T10:02:52.984Z,99924.30
2019-03-17T10:05:22.717Z,99926.75
2019-03-17T10:07:52.359Z,99944.31
2019-03-17T10:10:25.103Z,99953.42
2019-03-17T10:12:54.781Z,99957.18
2019-03-17T10:15:24.703Z,99953.06
2019-03-17T10:17:54.611Z,99959.50
2019-03-17T10:20:24.365Z,99963.45
2019-03-17T10:22:54.071Z,99961.55
2019-03-17T10:25:24.486Z,99951.83
2019-03-17T10:27:54.198Z,99967.65
2019-03-17T10:30:23.952Z,99977.92
2019-03-17T10:32:53.806Z,99974.80
2019-03-17T10:35:23.549Z,99973.16
2019-03-17T10:37:53.220Z,99981.36
2019-03-17T10:40:24.444Z,99980.23
2019-03-17T10:42:54.101Z,99972.21
2019-03-17T10:45:23.772Z,99982.34
2019-03-17T10:47:54.647Z,99990.11
2019-03-17T10:50:24.580Z,99992.90
2019-03-17T10:52:54.337Z,99988.59
2019-03-17T10:55:24.203Z,99987.00
2019-03-17T10:57:54.003Z,99989.62
2019-03-17T11:00:24.971Z,99992.63
2019-03-17T11:02:54.644Z,99998.44
2019-03-17T11:05:24.316Z,99994.16
2019-03-17T11:07:54.062Z,99995.33
2019-03-17T11:10:23.725Z,99992.61
2019-03-17T11:12:53.604Z,100002.51
2019-03-17T11:15:26.083Z,100010.16
2019-03-17T11:17:55.833Z,100019.16
2019-03-17T11:20:25.476Z,100033.27
2019-03-17T11:22:55.173Z,100034.54
2019-03-17T11:25:24.863Z,100031.20
2019-03-17T11:27:54.563Z,100030.94
2019-03-17T11:30:24.447Z,100036.05
2019-03-17T11:32:54.154Z,100037.34
2019-03-17T11:35:23.806Z,100034.95
2019-03-17T11:37:53.566Z,100040.37
2019-03-17T11:40:23.492Z,100024.00
2019-03-17T11:42:53.398Z,100036.05
2019-03-17T11:45:23.095Z,100043.13
2019-03-17T11:47:53.461Z,100037.16
2019-03-17T11:50:23.902Z,100042.16
2019-03-17T11:52:53.757Z,100045.88
2019-03-17T11:55:23.585Z,100047.80
2019-03-17T11:57:53.367Z,100052.08
2019-03-17T12:00:24.560Z,100047.36
2019-03-17T12:02:54.374Z,100056.80
2019-03-17T12:05:24.126Z,100054.98
2019-03-17T12:07:53.761Z,100055.14
2019-03-17T12:10:25.596Z,100059.06
2019-03-17T12:12:55.273Z,100064.14
2019-03-17T12:15:33.885Z,100078.80
2019-03-17T12:18:03.949Z,100079.48
2019-03-17T12:20:33.584Z,100084.42
2019-03-17T12:23:03.383Z,100075.30
2019-03-17T12:25:33.261Z,100081.25
2019-03-17T12:28:03.481Z,100075.43
2019-03-17T12:30:33.207Z,100079.12
2019-03-17T12:33:02.908Z,100079.51
2019-03-17T12:35:32.695Z,100102.06
2019-03-17T12:38:02.475Z,100103.29
2019-03-17T12:40:32.134Z,100101.23
2019-03-17T12:43:01.827Z,100106.20
2019-03-17T12:45:31.500Z,100104.80
2019-03-17T12:48:01.266Z,100117.39
2019-03-17T12:50:30.933Z,100107.65
2019-03-17T12:53:00.632Z,100112.47
2019-03-17T12:55:30.343Z,100114.73
2019-03-17T12:58:00.142Z,100116.72
2019-03-17T13:00:29.859Z,100105.02
2019-03-17T13:02:59.650Z,100125.59
2019-03-17T13:05:29.337Z,100138.00
2019-03-17T13:07:59.026Z,100147.51
2019-03-17T13:10:28.671Z,100151.56
2019-03-17T13:12:58.448Z,100144.61
2019-03-17T13:15:28.102Z,100157.27
2019-03-17T13:17:57.764Z,100184.94
2019-03-17T13:20:29.776Z,100175.81
2019-03-17T13:22:59.057Z,100185.52
2019-03-17T13:25:28.801Z,100206.08
2019-03-17T13:27:58.491Z,100203.61
2019-03-17T13:30:28.226Z,100191.53
2019-03-17T13:32:57.912Z,100195.00
2019-03-17T13:35:27.654Z,100201.62
2019-03-17T13:37:57.501Z,100216.48
2019-03-17T13:40:29.976Z,100215.07
2019-03-17T13:42:58.835Z,100195.42
2019-03-17T13:45:28.621Z,100194.11
2019-03-17T13:47:58.425Z,100193.17
2019-03-17T13:50:28.098Z,100202.38
2019-03-17T13:52:57.841Z,100189.66
2019-03-17T13:55:27.669Z,100192.95
2019-03-17T13:58:07.742Z,100185.85
2019-03-17T14:00:37.486Z,100193.46
2019-03-17T14:03:07.200Z,100184.27
2019-03-17T14:05:37.067Z,100213.90
2019-03-17T14:08:06.788Z,100232.58
2019-03-17T14:10:41.229Z,100221.63
2019-03-17T14:13:07.898Z,100228.18
2019-03-17T14:15:37.613Z,100231.13
2019-03-17T14:18:07.294Z,100235.08
2019-03-17T14:20:36.988Z,100240.11
2019-03-17T14:23:06.838Z,100233.41
2019-03-17T14:25:38.540Z,100228.90
2019-03-17T14:28:08.357Z,100219.73
2019-03-17T14:30:38.095Z,100222.21
2019-03-17T14:33:07.848Z,100224.88
2019-03-17T14:35:37.669Z,100234.56
2019-03-17T14:38:07.483Z,100232.14
2019-03-17T14:40:37.195Z,100249.88
2019-03-17T14:43:06.957Z,100252.61
2019-03-17T14:45:36.706Z,100257.23
2019-03-17T14:48:06.659Z,100256.44
2019-03-17T14:50:36.409Z,100255.51
2019-03-17T14:53:06.273Z,100256.19
2019-03-17T14:55:35.936Z,100257.34
2019-03-17T14:58:05.861Z,100266.12
2019-03-17T15:00:35.593Z,100264.69
2019-03-17T15:03:05.428Z,100264.19
2019-03-17T15:05:35.228Z,100274.00
2019-03-17T15:08:04.988Z,100269.44
2019-03-17T15:10:34.743Z,100268.50
2019-03-17T15:13:04.382Z,100274.52
2019-03-17T15:15:34.549Z,100275.23
2019-03-17T15:18:04.345Z,100284.21
2019-03-17T15:20:34.113Z,100278.55
2019-03-17T15:23:03.787Z,100286.45
2019-03-17T15:25:33.480Z,100286.92
2019-03-17T15:28:03.153Z,100283.89
2019-03-17T15:30:35.365Z,100286.95
2019-03-17T15:33:05.262Z,100286.20
2019-03-17T15:35:34.936Z,100288.16
2019-03-17T15:38:04.808Z,100289.09
2019-03-17T15:40:34.531Z,100293.97
2019-03-17T15:43:04.289Z,100297.35
2019-03-17T15:45:33.982Z,100294.44
2019-03-17T15:48:04.400Z,100296.83
2019-03-17T15:50:34.355Z,100306.47
2019-03-17T15:53:04.210Z,100311.64
2019-03-17T15:55:34.020Z,100309.59
2019-03-17T15:58:03.754Z,100308.39
2019-03-17T16:00:33.551Z,100314.03
2019-03-17T16:03:03.256Z,100319.93
2019-03-17T16:05:32.953Z,100322.29
2019-03-17T16:08:02.629Z,100327.73
2019-03-17T16:10:33.407Z,100338.75
2019-03-17T16:13:03.133Z,100347.50
2019-03-17T16:15:32.945Z,100349.89
2019-03-17T16:18:03.608Z,100348.38
2019-03-17T16:20:33.369Z,100343.36
2019-03-17T16:23:03.029Z,100345.44
2019-03-17T16:25:38.644Z,100350.46
2019-03-17T16:28:08.309Z,100354.67
2019-03-17T16:30:38.051Z,100358.14
2019-03-17T16:33:07.754Z,100366.17
2019-03-17T16:35:37.519Z,100370.50
2019-03-17T16:38:07.339Z,100377.15
2019-03-17T16:40:37.796Z,100379.10
2019-03-17T16:43:07.583Z,100386.20
2019-03-17T16:45:37.277Z,100384.70
2019-03-17T16:48:07.012Z,100393.70
2019-03-17T16:50:36.674Z,100400.68
2019-03-17T16:53:06.568Z,100392.42
2019-03-17T16:55:36.409Z,100398.07
2019-03-17T16:58:06.375Z,100406.28
2019-03-17T17:00:36.198Z,100406.74
2019-03-17T17:03:06.055Z,100406.13
2019-03-17T17:05:35.721Z,100404.37
2019-03-17T17:08:05.474Z,100416.14
2019-03-17T17:10:38.218Z,100419.27
2019-03-17T17:13:06.839Z,100419.04
2019-03-17T17:15:37.154Z,100428.13
2019-03-17T17:18:06.979Z,100423.81
2019-03-17T17:20:41.763Z,100431.27
2019-03-17T17:23:11.850Z,100429.98
2019-03-17T17:25:41.702Z,100435.56
2019-03-17T17:28:11.473Z,100437.17
2019-03-17T17:30:41.143Z,100444.91
2019-03-17T17:33:10.948Z,100446.55
2019-03-17T17:35:40.580Z,100460.87
2019-03-17T17:38:11.539Z,100467.55
2019-03-17T17:40:41.342Z,100476.28
2019-03-17T17:43:11.070Z,100479.73
2019-03-17T17:45:40.799Z,100484.31
2019-03-17T17:48:10.508Z,100491.50
2019-03-17T17:50:40.302Z,100480.67
2019-03-17T17:53:10.021Z,100490.45
2019-03-17T17:55:39.861Z,100503.76
2019-03-17T17:58:09.524Z,100508.02
2019-03-17T18:00:43.573Z,100510.42
2019-03-17T18:03:13.239Z,100517.05
2019-03-17T18:05:43.254Z,100519.98
2019-03-17T18:08:15.471Z,100523.44
2019-03-17T18:10:45.477Z,100530.92
2019-03-17T18:13:15.154Z,100540.98
2019-03-17T18:15:44.860Z,100538.65
2019-03-17T18:18:14.595Z,100541.05
2019-03-17T18:20:44.227Z,100545.00
2019-03-17T18:23:18.161Z,100546.63
2019-03-17T18:25:45.411Z,100556.17
2019-03-17T18:28:15.088Z,100560.18
2019-03-17T18:30:44.846Z,100556.20
2019-03-17T18:33:14.527Z,100564.14
2019-03-17T18:35:44.249Z,100580.06
2019-03-17T18:38:14.046Z,100577.68
2019-03-17T18:40:43.877Z,100581.40
2019-03-17T18:43:13.662Z,100589.09
2019-03-17T18:45:43.343Z,100594.66
2019-03-17T18:48:13.004Z,100598.88
2019-03-17T18:50:43.029Z,100598.66
2019-03-17T18:53:12.835Z,100612.17
2019-03-17T18:55:42.526Z,100620.67
2019-03-17T18:58:12.273Z,100611.91
2019-03-17T19:00:42.154Z,100628.09
2019-03-17T19:03:11.920Z,100627.02
2019-03-17T19:05:41.618Z,100637.08
2019-03-17T19:08:11.285Z,100632.31
2019-03-17T19:10:41.110Z,100643.42
2019-03-17T19:13:10.738Z,100649.23
2019-03-17T19:15:40.498Z,100652.67
2019-03-17T19:18:10.224Z,100651.85
2019-03-17T19:20:39.960Z,100659.25
2019-03-17T19:23:09.731Z,100665.61
2019-03-17T19:25:39.454Z,100675.08
2019-03-17T19:28:09.252Z,100679.59
2019-03-17T19:30:39.034Z,100687.55
2019-03-17T19:33:08.812Z,100701.28
2019-03-17T19:35:38.485Z,100693.84
2019-03-17T19:38:08.319Z,100694.84
2019-03-17T19:40:38.063Z,100687.69
2019-03-17T19:43:07.800Z,100707.73
2019-03-17T19:45:37.531Z,100701.87
2019-03-17T19:48:07.221Z,100697.87
2019-03-17T19:50:36.990Z,100692.78
2019-03-17T19:53:06.852Z,100695.75
2019-03-17T19:55:36.516Z,100698.84
2019-03-17T19:58:06.297Z,100707.30
2019-03-17T20:00:36.117Z,100703.55
2019-03-17T20:03:05.765Z,100711.52
2019-03-17T20:05:35.447Z,100712.88
2019-03-17T20:08:05.108Z,100713.64
2019-03-17T20:10:35.811Z,100718.94
2019-03-17T20:13:11.624Z,100720.25
2019-03-17T20:15:37.374Z,100722.02
2019-03-17T20:18:07.031Z,100722.06
2019-03-17T20:20:36.746Z,100736.30
2019-03-17T20:23:06.395Z,100738.91
2019-03-17T20:25:36.105Z,100738.06
2019-03-17T20:28:05.841Z,100745.19
2019-03-17T20:30:35.617Z,100745.00
2019-03-17T20:33:05.353Z,100751.31
2019-03-17T20:35:35.089Z,100750.25
2019-03-17T20:38:04.930Z,100756.52
2019-03-17T20:40:34.584Z,100754.12
2019-03-17T20:43:04.352Z,100763.09
2019-03-17T20:45:34.161Z,100769.22
2019-03-17T20:48:03.930Z,100764.19
2019-03-17T20:50:33.855Z,100763.64
2019-03-17T20:53:03.605Z,100767.55
2019-03-17T20:55:33.260Z,100775.40
2019-03-17T20:58:02.930Z,100778.08
2019-03-17T21:00:32.635Z,100783.83
2019-03-17T21:03:02.462Z,100776.42
2019-03-17T21:05:32.252Z,100775.09
2019-03-17T21:08:01.914Z,100783.33
2019-03-17T21:10:31.649Z,100790.58
2019-03-17T21:13:01.300Z,100790.91
2019-03-17T21:15:31.084Z,100785.58
2019-03-17T21:18:00.742Z,100786.14
2019-03-17T21:20:30.401Z,100790.36
2019-03-17T21:23:00.122Z,100780.34
2019-03-17T21:25:29.884Z,100791.09
2019-03-17T21:27:59.516Z,100795.59
2019-03-17T21:30:33.814Z,100804.86
2019-03-17T21:33:03.521Z,100811.67
2019-03-17T21:35:33.284Z,100811.96
2019-03-17T21:38:02.937Z,100818.52
2019-03-17T21:40:32.657Z,100822.80
2019-03-17T21:43:02.291Z,100823.80
2019-03-17T21:45:31.971Z,100826.41
2019-03-17T21:48:01.610Z,100821.27
2019-03-17T21:50:31.333Z,100824.17
2019-03-17T21:53:00.997Z,100820.92
2019-03-17T21:55:30.956Z,100824.84
2019-03-17T21:58:07.804Z,100823.91
2019-03-17T22:00:32.129Z,100836.05
2019-03-17T22:03:01.918Z,100833.87
2019-03-17T22:05:31.662Z,100843.58
2019-03-17T22:08:01.473Z,100834.22
2019-03-17T22:10:31.147Z,100838.80
2019-03-17T22:13:00.937Z,100844.08
2019-03-17T22:15:30.585Z,100851.45
2019-03-17T22:18:00.312Z,100851.86
2019-03-17T22:20:30.061Z,100850.13
2019-03-17T22:22:59.729Z,100854.54
2019-03-17T22:25:29.473Z,100858.61
2019-03-17T22:28:08.279Z,100853.09
2019-03-17T22:30:30.536Z,100856.67
2019-03-17T22:33:00.248Z,100859.32
2019-03-17T22:35:29.954Z,100863.73
2019-03-17T22:37:59.650Z,100857.94
2019-03-17T22:40:29.340Z,100868.25
2019-03-17T22:42:59.062Z,100874.61
2019-03-17T22:45:28.745Z,100873.92
2019-03-17T22:47:58.411Z,100873.10
2019-03-17T22:50:28.086Z,100873.39
2019-03-17T22:52:57.874Z,100885.85
2019-03-17T22:55:27.637Z,100879.58
2019-03-17T22:57:59.254Z,100880.64
2019-03-17T23:00:34.230Z,100882.47
2019-03-17T23:03:04.158Z,100881.75
2019-03-17T23:05:33.998Z,100883.84
2019-03-17T23:08:03.762Z,100888.80
2019-03-17T23:10:33.576Z,100892.45
2019-03-17T23:13:03.254Z,100894.04
2019-03-17T23:15:35.601Z,100888.36
2019-03-17T23:18:04.800Z,100892.52
2019-03-17T23:20:34.508Z,100893.28
2019-03-17T23:23:04.169Z,100893.22
2019-03-17T23:25:33.994Z,100895.79
2019-03-17T23:28:03.785Z,100892.50
2019-03-17T23:30:33.465Z,100900.94
2019-03-17T23:33:03.143Z,100897.22
2019-03-17T23:35:32.860Z,100903.52
2019-03-17T23:38:02.540Z,100896.55
2019-03-17T23:40:32.292Z,100900.69
2019-03-17T23:43:02.060Z,100902.83
2019-03-17T23:45:31.720Z,100899.13
2019-03-17T23:48:01.535Z,100906.77
2019-03-17T23:50:31.172Z,100903.31
2019-03-17T23:53:00.924Z,100907.02
2019-03-17T23:55:30.679Z,100900.30
2019-03-17T23:58:00.506Z,100898.65
